Time;durP1;ratioP1;P1;durP2;ratioP2;P2;SDS_P1;SDS_P2;PMS_P1;PMS_P2;Temp;Humidity;BMP_temperature;BMP_pressure;BME280_temperature;BME280_humidity;BME280_pressure;Samples;Min_cycle;Max_cycle;Signal;HPM_P1;HPM_P2
2021/07/26 00:00:44;;;;;;;6.37;5.77;;;20.30;99.90;;;;;;4936690;29;20215;-61
2021/07/26 00:03:10;;;;;;;6.87;6.13;;;20.30;99.90;;;;;;4936344;29;20931;-62
2021/07/26 00:05:35;;;;;;;7.03;6.43;;;20.20;99.90;;;;;;4936350;29;20190;-62
2021/07/26 00:08:01;;;;;;;5.70;5.03;;;20.20;99.90;;;;;;4936248;29;20167;-62
2021/07/26 00:10:26;;;;;;;7.30;5.70;;;20.20;99.90;;;;;;4936036;29;20265;-63
2021/07/26 00:12:52;;;;;;;7.90;5.07;;;20.30;99.90;;;;;;4936010;29;20239;-62
2021/07/26 00:15:18;;;;;;;7.20;5.57;;;20.30;99.90;;;;;;4936217;29;20243;-63
2021/07/26 00:17:43;;;;;;;7.70;5.83;;;20.40;99.90;;;;;;4936010;29;20166;-63
2021/07/26 00:20:10;;;;;;;5.30;4.80;;;20.40;99.90;;;;;;4935971;29;20193;-63
2021/07/26 00:22:38;;;;;;;8.10;7.13;;;20.40;99.90;;;;;;4936201;29;20265;-63
2021/07/26 00:25:05;;;;;;;9.10;6.20;;;20.30;99.90;;;;;;4935789;29;20946;-62
2021/07/26 00:27:31;;;;;;;6.33;5.73;;;20.30;99.90;;;;;;4935810;29;20824;-62
2021/07/26 00:29:57;;;;;;;7.13;5.50;;;20.40;99.90;;;;;;4936076;29;20505;-62
2021/07/26 00:32:22;;;;;;;7.10;6.00;;;20.40;99.90;;;;;;4936165;29;20232;-62
2021/07/26 00:34:48;;;;;;;6.70;6.10;;;20.20;99.90;;;;;;4936414;29;20178;-63
2021/07/26 00:37:14;;;;;;;8.37;6.77;;;20.00;99.90;;;;;;4935890;29;20190;-62
2021/07/26 00:39:39;;;;;;;7.33;6.63;;;20.00;99.90;;;;;;4935726;29;20191;-62
2021/07/26 00:42:05;;;;;;;6.73;5.30;;;20.00;99.90;;;;;;4935904;29;20664;-64
2021/07/26 00:44:32;;;;;;;6.27;5.67;;;20.10;99.90;;;;;;4934173;29;20190;-63
2021/07/26 00:46:59;;;;;;;7.53;5.93;;;20.10;99.90;;;;;;4936084;29;20525;-62
2021/07/26 00:49:26;;;;;;;6.77;6.17;;;20.10;99.90;;;;;;4936185;29;20966;-63
2021/07/26 00:51:54;;;;;;;5.93;5.40;;;20.10;99.90;;;;;;4936183;29;20421;-63
2021/07/26 00:54:25;;;;;;;9.93;5.30;;;20.20;99.90;;;;;;4936099;29;20441;-63
2021/07/26 00:56:53;;;;;;;6.40;5.80;;;20.30;99.90;;;;;;4936656;29;20398;-62
2021/07/26 00:59:19;;;;;;;6.43;5.80;;;20.20;99.90;;;;;;4937633;29;20991;-63
2021/07/26 01:01:45;;;;;;;5.80;5.20;;;20.10;99.90;;;;;;4936024;29;20410;-63
2021/07/26 01:04:11;;;;;;;6.23;5.63;;;20.20;99.90;;;;;;4936126;29;20402;-63
2021/07/26 01:06:38;;;;;;;6.03;5.53;;;20.20;99.90;;;;;;4935902;29;20242;-63
2021/07/26 01:09:03;;;;;;;6.50;6.00;;;20.20;99.90;;;;;;4935086;29;20199;-63
2021/07/26 01:11:30;;;;;;;7.67;5.30;;;20.20;99.90;;;;;;4938895;29;20896;-63
2021/07/26 01:13:55;;;;;;;6.20;5.70;;;20.20;99.90;;;;;;4939281;29;20179;-63
2021/07/26 01:16:23;;;;;;;7.20;5.60;;;20.20;99.90;;;;;;4939437;29;20893;-63
2021/07/26 01:18:49;;;;;;;7.10;6.40;;;20.30;99.90;;;;;;4939725;29;20231;-64
2021/07/26 01:21:17;;;;;;;7.97;6.33;;;20.20;99.90;;;;;;4940004;29;20415;-64
2021/07/26 01:23:47;;;;;;;5.90;5.30;;;20.20;99.90;;;;;;4938897;29;20912;-64
2021/07/26 01:26:15;;;;;;;6.33;5.70;;;20.30;99.90;;;;;;4938914;29;20414;-63
2021/07/26 01:28:43;;;;;;;6.97;6.27;;;20.30;99.90;;;;;;4938664;29;20517;-63
2021/07/26 01:31:10;;;;;;;6.90;6.20;;;20.40;99.90;;;;;;4938978;29;20423;-63
2021/07/26 01:33:37;;;;;;;6.43;5.80;;;20.40;99.90;;;;;;4938891;29;20423;-63
2021/07/26 01:36:03;;;;;;;6.30;5.30;;;20.50;99.90;;;;;;4938699;29;20978;-64
2021/07/26 01:38:29;;;;;;;6.43;5.70;;;20.40;99.90;;;;;;4938738;29;20943;-63
2021/07/26 01:41:01;;;;;;;6.63;5.20;;;20.50;99.90;;;;;;4938384;29;20422;-62
2021/07/26 01:43:32;;;;;;;7.43;6.70;;;20.50;99.90;;;;;;4938555;29;20219;-64
2021/07/26 01:46:09;;;;;;;7.53;5.70;;;20.40;99.90;;;;;;4938961;29;20399;-63
2021/07/26 01:48:53;;;;;;;7.47;6.00;;;20.40;99.90;;;;;;4938928;29;20446;-63
2021/07/26 01:51:49;;;;;;;6.50;5.53;;;20.30;99.90;;;;;;4938881;29;20391;-63
2021/07/26 01:54:14;;;;;;;5.50;5.00;;;20.30;99.90;;;;;;4930020;29;20517;-64
2021/07/26 01:56:41;;;;;;;6.30;5.70;;;20.40;99.90;;;;;;4938913;29;20541;-63
2021/07/26 01:59:07;;;;;;;6.17;5.57;;;20.40;99.90;;;;;;4938074;29;20447;-63
2021/07/26 02:01:33;;;;;;;5.50;5.00;;;20.30;99.90;;;;;;4938880;29;20501;-63
2021/07/26 02:03:59;;;;;;;8.67;4.83;;;20.30;99.90;;;;;;4938569;29;20419;-63
2021/07/26 02:06:27;;;;;;;6.10;5.60;;;20.40;99.90;;;;;;4938477;29;20431;-62
2021/07/26 02:08:53;;;;;;;5.97;5.47;;;20.30;99.90;;;;;;4938451;29;20430;-63
2021/07/26 02:11:21;;;;;;;6.80;6.20;;;20.30;99.90;;;;;;4938329;29;20415;-62
2021/07/26 02:13:48;;;;;;;8.03;6.40;;;20.30;99.90;;;;;;4938330;29;20421;-62
2021/07/26 02:16:13;;;;;;;5.97;5.47;;;20.30;99.90;;;;;;4938092;29;20549;-62
2021/07/26 02:18:39;;;;;;;5.97;5.37;;;20.20;99.90;;;;;;4938185;29;20873;-62
2021/07/26 02:21:05;;;;;;;5.50;5.00;;;20.30;99.90;;;;;;4937891;29;20183;-62
2021/07/26 02:23:30;;;;;;;10.10;6.27;;;20.40;99.90;;;;;;4937778;29;20199;-62
2021/07/26 02:25:56;;;;;;;7.40;5.90;;;20.40;99.90;;;;;;4937684;29;20179;-62
2021/07/26 02:28:22;;;;;;;6.50;5.90;;;20.50;99.90;;;;;;4938059;29;20279;-64
2021/07/26 02:30:47;;;;;;;6.57;5.97;;;20.50;99.90;;;;;;4937992;29;20613;-63
2021/07/26 02:33:13;;;;;;;5.90;5.40;;;20.40;99.90;;;;;;4937857;29;20179;-61
2021/07/26 02:35:39;;;;;;;6.30;5.73;;;20.40;99.90;;;;;;4937651;29;20644;-63
2021/07/26 02:38:04;;;;;;;7.13;5.40;;;20.30;99.90;;;;;;4937872;29;20266;-63
2021/07/26 02:40:30;;;;;;;6.17;5.53;;;20.30;99.90;;;;;;4937425;29;20613;-61
2021/07/26 02:42:56;;;;;;;7.63;6.30;;;20.20;99.90;;;;;;4937536;29;20225;-63
2021/07/26 02:45:26;;;;;;;5.40;4.90;;;20.10;99.90;;;;;;4938411;29;20310;-64
2021/07/26 02:47:51;;;;;;;6.50;5.90;;;20.20;99.90;;;;;;4937553;29;20418;-64
2021/07/26 02:50:18;;;;;;;7.00;6.30;;;20.20;99.90;;;;;;4937360;29;20426;-63
2021/07/26 02:52:43;;;;;;;6.03;5.53;;;20.20;99.90;;;;;;4937887;29;20179;-63
2021/07/26 02:55:10;;;;;;;5.77;5.27;;;20.20;99.90;;;;;;4937446;29;20436;-63
2021/07/26 02:57:35;;;;;;;6.70;6.10;;;20.20;99.90;;;;;;4937267;29;20196;-63
2021/07/26 03:00:01;;;;;;;8.63;5.57;;;20.10;99.90;;;;;;4936986;29;20530;-63
2021/07/26 03:02:26;;;;;;;5.93;5.30;;;20.10;99.90;;;;;;4937342;29;20703;-63
2021/07/26 03:04:52;;;;;;;6.70;6.10;;;20.20;99.90;;;;;;4937556;29;20174;-63
2021/07/26 03:07:18;;;;;;;6.90;6.30;;;20.20;99.90;;;;;;4937396;29;20186;-62
2021/07/26 03:09:43;;;;;;;6.40;5.77;;;20.20;99.90;;;;;;4937144;29;20198;-63
2021/07/26 03:12:09;;;;;;;7.67;5.30;;;20.20;99.90;;;;;;4937424;29;20179;-63
2021/07/26 03:14:35;;;;;;;5.90;5.40;;;20.30;99.90;;;;;;4937250;29;20630;-63
2021/07/26 03:17:05;;;;;;;6.83;6.13;;;20.30;99.90;;;;;;4936826;29;20549;-63
2021/07/26 03:19:31;;;;;;;6.77;6.17;;;20.40;99.90;;;;;;4937248;29;20194;-63
2021/07/26 03:22:43;;;;;;;6.07;5.47;;;20.30;99.90;;;;;;4937103;29;20939;-62
2021/07/26 03:25:09;;;;;;;5.40;5.00;;;20.40;99.90;;;;;;4937086;29;20477;-62
2021/07/26 03:27:35;;;;;;;7.37;6.40;;;20.40;99.90;;;;;;4937132;29;20522;-61
2021/07/26 03:30:00;;;;;;;6.47;5.87;;;20.40;99.90;;;;;;4936934;29;20201;-62
2021/07/26 03:32:26;;;;;;;6.73;5.30;;;20.40;99.90;;;;;;4936702;29;20509;-63
2021/07/26 03:34:51;;;;;;;6.50;5.13;;;20.40;99.90;;;;;;4936685;29;20182;-64
2021/07/26 03:37:17;;;;;;;7.10;6.50;;;20.40;99.90;;;;;;4934678;29;20667;-63
2021/07/26 03:39:43;;;;;;;6.53;5.90;;;20.40;99.90;;;;;;4936281;29;20191;-61
2021/07/26 03:42:08;;;;;;;6.50;6.00;;;20.40;99.90;;;;;;4936966;29;20177;-61
2021/07/26 03:44:34;;;;;;;6.13;5.53;;;20.40;99.90;;;;;;4936563;29;20545;-61
2021/07/26 03:47:00;;;;;;;6.77;6.17;;;20.30;99.90;;;;;;4936830;29;20179;-63
2021/07/26 03:49:25;;;;;;;7.10;6.40;;;20.20;99.90;;;;;;4936743;29;20195;-63
2021/07/26 03:51:51;;;;;;;8.43;6.20;;;20.20;99.90;;;;;;4936971;29;20411;-63
2021/07/26 03:54:17;;;;;;;7.60;5.33;;;20.20;99.90;;;;;;4936609;29;20178;-63
2021/07/26 03:56:42;;;;;;;6.23;5.60;;;20.30;99.90;;;;;;4936420;29;20655;-63
2021/07/26 03:59:08;;;;;;;6.90;6.20;;;20.20;99.90;;;;;;4936272;29;20277;-63
2021/07/26 04:01:34;;;;;;;6.03;5.40;;;20.20;99.90;;;;;;4937062;29;20238;-63
2021/07/26 04:03:59;;;;;;;5.50;5.00;;;20.00;99.90;;;;;;4936376;29;20648;-63
2021/07/26 04:06:25;;;;;;;5.77;5.27;;;20.10;99.90;;;;;;4936145;29;20249;-63
2021/07/26 04:08:52;;;;;;;6.70;6.10;;;20.10;99.90;;;;;;4936376;29;20226;-63
2021/07/26 04:11:25;;;;;;;6.10;5.50;;;20.20;99.90;;;;;;4936379;29;20178;-63
2021/07/26 04:14:07;;;;;;;6.07;5.40;;;20.30;99.90;;;;;;4936298;29;20861;-63
2021/07/26 04:16:33;;;;;;;6.00;5.40;;;20.40;99.90;;;;;;4936373;29;20445;-63
2021/07/26 04:19:01;;;;;;;6.40;5.80;;;20.30;99.90;;;;;;4936439;29;20477;-63
2021/07/26 04:21:33;;;;;;;7.70;6.10;;;20.20;99.90;;;;;;4936209;29;20954;-63
2021/07/26 04:24:02;;;;;;;5.43;4.93;;;20.10;99.90;;;;;;4936460;29;20403;-63
2021/07/26 04:26:28;;;;;;;7.10;5.80;;;20.10;99.90;;;;;;4935777;29;20561;-63
2021/07/26 04:28:54;;;;;;;7.33;5.90;;;20.20;99.90;;;;;;4936043;29;20520;-63
2021/07/26 04:31:19;;;;;;;5.83;5.30;;;20.30;99.90;;;;;;4936244;29;20666;-63
2021/07/26 04:33:45;;;;;;;6.90;5.47;;;20.30;99.90;;;;;;4936147;29;20178;-63
2021/07/26 04:36:10;;;;;;;6.10;5.50;;;20.30;99.90;;;;;;4936107;29;20201;-63
2021/07/26 04:38:36;;;;;;;7.60;5.30;;;20.40;99.90;;;;;;4936052;29;20247;-63
2021/07/26 04:41:02;;;;;;;5.90;5.03;;;20.40;99.90;;;;;;4935733;29;20258;-63
2021/07/26 04:43:28;;;;;;;5.53;5.03;;;20.40;99.90;;;;;;4936177;29;20566;-63
2021/07/26 04:45:58;;;;;;;7.57;6.23;;;20.40;99.90;;;;;;4938264;29;20816;-63
2021/07/26 04:48:24;;;;;;;11.10;5.87;;;20.30;99.90;;;;;;4939940;29;20426;-63
2021/07/26 04:50:50;;;;;;;6.70;6.10;;;20.40;99.90;;;;;;4938354;29;20778;-63
2021/07/26 04:53:15;;;;;;;6.07;4.90;;;20.40;99.90;;;;;;4939740;29;20175;-63
2021/07/26 04:55:41;;;;;;;7.00;5.30;;;20.40;99.90;;;;;;4939455;29;20171;-62
2021/07/26 04:58:06;;;;;;;6.10;5.50;;;20.40;99.90;;;;;;4939489;29;20175;-63
2021/07/26 05:00:32;;;;;;;5.90;5.30;;;20.30;99.90;;;;;;4940005;29;20166;-63
2021/07/26 05:02:58;;;;;;;6.00;5.40;;;20.30;99.90;;;;;;4939681;29;20167;-63
2021/07/26 05:05:23;;;;;;;6.50;5.83;;;20.20;99.90;;;;;;4939602;29;20185;-63
2021/07/26 05:07:49;;;;;;;6.27;5.30;;;20.10;99.90;;;;;;4920606;29;20178;-63
2021/07/26 05:10:15;;;;;;;7.07;5.17;;;20.20;99.90;;;;;;4919851;29;20719;-63
2021/07/26 05:12:42;;;;;;;4.90;4.50;;;20.20;99.90;;;;;;4920164;29;20190;-63
2021/07/26 05:15:09;;;;;;;5.43;4.90;;;20.10;99.90;;;;;;4920295;29;20407;-63
2021/07/26 05:17:34;;;;;;;6.00;5.50;;;20.20;99.90;;;;;;4920246;29;20455;-61
2021/07/26 05:20:00;;;;;;;5.77;5.30;;;20.20;99.90;;;;;;4920144;29;20506;-63
2021/07/26 05:22:26;;;;;;;6.13;5.53;;;20.20;99.90;;;;;;4934655;29;20175;-63
2021/07/26 05:24:51;;;;;;;7.00;5.87;;;20.30;99.90;;;;;;4919629;29;20167;-63
2021/07/26 05:27:17;;;;;;;5.67;5.10;;;20.30;99.90;;;;;;4919980;29;20612;-63
2021/07/26 05:29:43;;;;;;;6.40;5.80;;;20.30;99.90;;;;;;4919650;29;20219;-63
2021/07/26 05:32:09;;;;;;;6.60;5.27;;;20.20;99.90;;;;;;4925878;29;20175;-63
2021/07/26 05:34:35;;;;;;;6.20;5.60;;;20.20;99.90;;;;;;4938760;29;20199;-61
2021/07/26 05:37:02;;;;;;;6.00;5.50;;;20.30;99.90;;;;;;4938725;29;20494;-61
2021/07/26 05:39:28;;;;;;;5.50;4.97;;;20.30;99.90;;;;;;4937508;29;20448;-62
2021/07/26 05:41:58;;;;;;;6.43;4.90;;;20.50;99.90;;;;;;4938883;29;20899;-62
2021/07/26 05:44:24;;;;;;;5.50;5.00;;;20.60;99.90;;;;;;4938471;29;20387;-61
2021/07/26 05:46:50;;;;;;;5.03;4.63;;;20.60;99.90;;;;;;4938534;29;20410;-62
2021/07/26 05:49:16;;;;;;;6.50;5.90;;;20.70;99.90;;;;;;4938746;29;20191;-62
2021/07/26 05:51:41;;;;;;;5.93;5.33;;;20.70;99.90;;;;;;4938668;29;20497;-62
2021/07/26 05:54:07;;;;;;;5.93;5.43;;;20.80;99.90;;;;;;4937384;29;20182;-62
2021/07/26 05:56:37;;;;;;;5.43;4.93;;;20.90;99.90;;;;;;4936782;29;20667;-62
2021/07/26 05:59:04;;;;;;;7.00;5.10;;;21.00;99.90;;;;;;4937954;29;20203;-62
2021/07/26 06:04:02;;;;;;;6.53;5.63;;;21.20;99.90;;;;;;4938384;29;20392;-62
2021/07/26 06:06:28;;;;;;;6.30;5.20;;;21.40;99.90;;;;;;4938056;29;20414;-63
2021/07/26 06:08:53;;;;;;;6.50;5.50;;;21.50;99.90;;;;;;4937972;29;20441;-63
2021/07/26 06:11:19;;;;;;;10.97;4.30;;;21.60;99.90;;;;;;4937835;29;20206;-62
2021/07/26 06:13:44;;;;;;;9.17;5.07;;;21.80;99.90;;;;;;4937794;29;20520;-63
2021/07/26 06:16:10;;;;;;;6.93;5.70;;;21.90;99.90;;;;;;4937744;29;20246;-62
2021/07/26 06:18:36;;;;;;;5.90;5.07;;;22.00;99.90;;;;;;4938236;29;20190;-62
2021/07/26 06:21:08;;;;;;;10.17;5.43;;;21.80;99.90;;;;;;4938476;29;20170;-61
2021/07/26 06:23:34;;;;;;;5.77;5.17;;;21.90;99.90;;;;;;4937997;29;20525;-62
2021/07/26 06:26:01;;;;;;;8.20;5.37;;;21.70;99.90;;;;;;4937860;29;20406;-62
2021/07/26 06:28:26;;;;;;;6.20;5.20;;;21.70;99.90;;;;;;4937649;29;20470;-62
2021/07/26 06:30:52;;;;;;;8.73;5.40;;;21.70;99.90;;;;;;4935751;29;20454;-62
2021/07/26 06:33:17;;;;;;;6.20;4.90;;;21.50;99.90;;;;;;4937751;29;20184;-62
2021/07/26 06:35:43;;;;;;;5.57;5.07;;;21.40;99.90;;;;;;4937464;29;20199;-61
2021/07/26 06:38:08;;;;;;;4.90;4.40;;;21.40;99.90;;;;;;4937454;29;20167;-62
2021/07/26 06:40:34;;;;;;;4.90;4.50;;;21.60;99.90;;;;;;4937408;29;20225;-62
2021/07/26 06:43:00;;;;;;;5.30;4.80;;;21.70;99.90;;;;;;4937687;29;20175;-62
2021/07/26 06:45:26;;;;;;;6.20;5.00;;;21.70;99.90;;;;;;4935882;29;20519;-62
2021/07/26 06:47:52;;;;;;;5.23;4.80;;;21.80;99.90;;;;;;4936393;29;20175;-62
2021/07/26 06:50:18;;;;;;;5.90;5.30;;;21.90;99.90;;;;;;4937300;29;20258;-62
2021/07/26 06:52:44;;;;;;;5.87;4.70;;;22.10;99.90;;;;;;4936994;29;20415;-62
2021/07/26 06:55:10;;;;;;;5.23;4.77;;;22.30;99.90;;;;;;4937144;29;20422;-62
2021/07/26 06:57:36;;;;;;;5.30;4.80;;;22.40;99.90;;;;;;4937094;29;20202;-62
2021/07/26 07:00:03;;;;;;;5.73;4.00;;;22.50;99.90;;;;;;4981221;23;20548;-61
2021/07/26 07:02:28;;;;;;;11.03;5.67;;;22.50;99.90;;;;;;4994795;28;20173;-61
2021/07/26 07:04:54;;;;;;;6.23;4.87;;;22.60;99.90;;;;;;4994855;28;20555;-61
2021/07/26 07:07:19;;;;;;;5.20;4.70;;;22.80;99.90;;;;;;4979186;28;20181;-62
2021/07/26 07:09:45;;;;;;;4.40;4.00;;;22.90;99.90;;;;;;4964739;28;20198;-61
2021/07/26 07:12:14;;;;;;;5.47;4.73;;;23.10;99.90;;;;;;4956161;29;20694;-61
2021/07/26 07:14:40;;;;;;;4.90;4.00;;;23.30;99.90;;;;;;4955911;28;20647;-61
2021/07/26 07:17:06;;;;;;;6.97;4.80;;;23.50;99.90;;;;;;4955876;29;20493;-61
2021/07/26 07:19:31;;;;;;;4.80;4.10;;;23.60;99.90;;;;;;4974906;28;20212;-61
2021/07/26 07:21:57;;;;;;;5.27;4.17;;;23.50;99.90;;;;;;4974146;28;20205;-61
2021/07/26 07:24:22;;;;;;;4.67;3.93;;;23.40;99.90;;;;;;4975360;28;20173;-61
2021/07/26 07:26:48;;;;;;;4.40;4.00;;;23.40;99.90;;;;;;4975394;28;20253;-59
2021/07/26 07:29:15;;;;;;;4.00;3.70;;;23.50;99.90;;;;;;4974960;28;20201;-61
2021/07/26 07:31:41;;;;;;;3.87;3.27;;;23.70;99.90;;;;;;4975085;28;20677;-61
2021/07/26 07:34:07;;;;;;;3.77;3.30;;;23.90;99.90;;;;;;4975175;28;20441;-61
2021/07/26 07:36:33;;;;;;;4.03;3.60;;;24.10;99.90;;;;;;4965548;28;20564;-61
2021/07/26 07:39:00;;;;;;;4.33;3.93;;;24.30;99.90;;;;;;4955695;28;20505;-61
2021/07/26 07:41:26;;;;;;;4.47;4.00;;;24.20;99.90;;;;;;4955283;28;20174;-61
2021/07/26 07:43:52;;;;;;;5.47;4.90;;;24.10;99.90;;;;;;4938066;29;20468;-61
2021/07/26 07:46:19;;;;;;;4.30;3.90;;;24.10;99.90;;;;;;4955812;28;20763;-61
2021/07/26 07:48:46;;;;;;;5.50;3.80;;;23.90;99.90;;;;;;4955118;28;20410;-61
2021/07/26 07:51:12;;;;;;;4.67;4.13;;;23.90;99.90;;;;;;4955768;28;20801;-60
2021/07/26 07:53:37;;;;;;;4.30;3.90;;;23.90;99.90;;;;;;4955431;28;20406;-61
2021/07/26 07:56:03;;;;;;;4.50;4.10;;;23.90;99.90;;;;;;4974318;28;20201;-62
2021/07/26 07:58:29;;;;;;;4.00;3.70;;;24.00;99.90;;;;;;4974256;28;20170;-62
2021/07/26 08:00:58;;;;;;;4.50;4.10;;;24.00;99.90;;;;;;4974403;28;20500;-62
2021/07/26 08:03:27;;;;;;;4.30;3.90;;;23.70;99.90;;;;;;4974778;28;20173;-62
2021/07/26 08:05:53;;;;;;;4.00;3.60;;;24.00;99.90;;;;;;4970733;28;20428;-62
2021/07/26 08:08:20;;;;;;;5.30;4.43;;;24.10;99.90;;;;;;4955569;28;20422;-61
2021/07/26 08:10:45;;;;;;;4.23;3.70;;;24.10;99.90;;;;;;4954994;28;20808;-61
2021/07/26 08:13:12;;;;;;;4.40;3.30;;;24.50;99.90;;;;;;4955449;29;20493;-62
2021/07/26 08:15:38;;;;;;;6.87;3.80;;;24.80;99.90;;;;;;4955331;28;20181;-62
2021/07/26 08:18:03;;;;;;;5.00;3.07;;;24.80;99.90;;;;;;4955873;28;20517;-61
2021/07/26 08:20:29;;;;;;;4.30;3.90;;;24.80;99.90;;;;;;4955368;28;20259;-62
2021/07/26 08:22:55;;;;;;;6.70;3.60;;;24.80;99.90;;;;;;4956490;29;20170;-61
2021/07/26 08:25:20;;;;;;;6.20;3.60;;;24.90;99.90;;;;;;4956214;29;20914;-62
2021/07/26 08:27:58;;;;;;;6.33;4.33;;;25.10;99.90;;;;;;4955414;29;20253;-61
2021/07/26 08:30:26;;;;;;;4.23;3.57;;;25.40;99.90;;;;;;4954650;28;20200;-61
2021/07/26 08:32:53;;;;;;;4.33;3.93;;;25.50;99.90;;;;;;4954855;28;20409;-62
2021/07/26 08:35:19;;;;;;;4.00;3.70;;;25.40;99.90;;;;;;4955048;28;20489;-61
2021/07/26 08:37:45;;;;;;;3.60;3.30;;;25.20;99.90;;;;;;4955139;28;20476;-61
2021/07/26 08:40:11;;;;;;;3.87;3.40;;;25.30;99.90;;;;;;4954907;28;20422;-59
2021/07/26 08:42:38;;;;;;;3.57;3.27;;;25.40;99.90;;;;;;4955470;28;20402;-62
2021/07/26 08:45:04;;;;;;;4.43;4.03;;;25.60;99.90;;;;;;4954913;28;20405;-61
2021/07/26 08:47:32;;;;;;;3.80;3.50;;;25.60;99.90;;;;;;4954925;28;20472;-60
2021/07/26 08:50:02;;;;;;;5.07;3.97;;;25.50;99.90;;;;;;4954867;28;20444;-61
2021/07/26 08:52:32;;;;;;;3.80;3.50;;;25.40;99.90;;;;;;4955091;28;20449;-61
2021/07/26 08:54:58;;;;;;;5.13;3.83;;;25.20;99.90;;;;;;4965219;28;20408;-62
2021/07/26 08:57:24;;;;;;;3.53;3.23;;;25.40;99.90;;;;;;4973927;28;20449;-62
2021/07/26 08:59:50;;;;;;;3.83;3.53;;;25.20;99.90;;;;;;4973401;28;20899;-62
2021/07/26 09:02:15;;;;;;;4.20;3.80;;;25.20;99.90;;;;;;4973917;28;20538;-62
2021/07/26 09:04:41;;;;;;;4.30;3.53;;;25.20;99.90;;;;;;4974170;28;20240;-62
2021/07/26 09:07:07;;;;;;;3.73;3.43;;;25.20;99.90;;;;;;4960150;28;20186;-62
2021/07/26 09:09:47;;;;;;;4.13;3.73;;;25.40;99.90;;;;;;4954711;28;20624;-62
2021/07/26 09:12:33;;;;;;;3.87;3.57;;;25.60;99.90;;;;;;4954207;28;20903;-62
2021/07/26 09:15:00;;;;;;;4.93;3.60;;;25.80;99.90;;;;;;4954678;28;20398;-62
2021/07/26 09:17:41;;;;;;;3.83;3.43;;;25.80;99.90;;;;;;4954567;28;20449;-62
2021/07/26 09:20:08;;;;;;;4.20;3.83;;;25.90;99.90;;;;;;4954677;28;20425;-62
2021/07/26 09:22:36;;;;;;;3.57;3.27;;;25.70;99.90;;;;;;4954830;28;20410;-61
2021/07/26 09:25:28;;;;;;;3.47;3.20;;;25.60;99.90;;;;;;4955403;28;20413;-62
2021/07/26 09:28:12;;;;;;;4.00;3.67;;;25.70;99.90;;;;;;4954657;28;20876;-62
2021/07/26 09:30:49;;;;;;;5.83;3.63;;;25.30;99.90;;;;;;4954422;28;20520;-61
2021/07/26 09:33:19;;;;;;;3.53;3.23;;;25.60;99.90;;;;;;4958131;28;20493;-62
2021/07/26 09:35:45;;;;;;;3.27;2.97;;;25.70;99.90;;;;;;4957826;28;20429;-62
2021/07/26 09:38:13;;;;;;;4.30;3.40;;;26.00;99.90;;;;;;4957948;28;20413;-62
2021/07/26 09:40:39;;;;;;;3.60;3.20;;;26.30;99.90;;;;;;4957717;28;20440;-62
2021/07/26 09:43:24;;;;;;;3.90;3.60;;;26.50;99.90;;;;;;4957613;29;20406;-62
2021/07/26 09:45:55;;;;;;;4.37;3.33;;;26.50;99.90;;;;;;4957854;28;20593;-62
2021/07/26 09:48:29;;;;;;;4.20;3.77;;;26.60;99.90;;;;;;4957970;28;20395;-62
2021/07/26 09:50:56;;;;;;;3.33;3.03;;;26.70;99.90;;;;;;4957854;28;20854;-62
2021/07/26 09:53:24;;;;;;;3.57;3.27;;;26.90;99.90;;;;;;4962033;28;20469;-62
2021/07/26 09:55:55;;;;;;;3.13;2.80;;;26.70;99.90;;;;;;4973592;28;20799;-62
2021/07/26 09:58:38;;;;;;;3.57;3.20;;;26.90;99.90;;;;;;4976935;28;20420;-62
2021/07/26 10:01:05;;;;;;;3.37;3.07;;;26.80;99.90;;;;;;4976373;28;20436;-62
2021/07/26 10:03:31;;;;;;;4.53;3.43;;;26.60;99.90;;;;;;4976956;28;20413;-62
2021/07/26 10:05:59;;;;;;;3.33;3.00;;;26.30;99.90;;;;;;4975290;28;20862;-62
2021/07/26 10:08:26;;;;;;;3.60;3.30;;;26.30;99.90;;;;;;4976565;28;20457;-61
2021/07/26 10:10:52;;;;;;;3.60;3.20;;;26.40;99.90;;;;;;4976391;28;20429;-62
2021/07/26 10:13:19;;;;;;;3.70;3.40;;;26.40;99.90;;;;;;4976474;28;20411;-62
2021/07/26 10:15:45;;;;;;;4.07;3.73;;;26.40;99.90;;;;;;4976307;28;20169;-61
2021/07/26 10:18:10;;;;;;;6.37;3.73;;;26.70;99.90;;;;;;4976475;28;20409;-62
2021/07/26 10:20:44;;;;;;;2.87;2.67;;;26.70;99.90;;;;;;4976266;28;20455;-62
2021/07/26 10:23:20;;;;;;;6.03;3.00;;;26.90;99.90;;;;;;4976665;28;20165;-62
2021/07/26 10:25:52;;;;;;;3.60;3.20;;;27.10;99.90;;;;;;4976257;28;20420;-62
2021/07/26 10:28:50;;;;;;;3.03;2.80;;;27.50;99.90;;;;;;4976404;28;20425;-62
2021/07/26 10:31:29;;;;;;;3.83;3.53;;;27.70;99.90;;;;;;4974709;28;20420;-62
2021/07/26 10:34:15;;;;;;;3.63;3.33;;;27.70;99.60;;;;;;4975997;28;20965;-62
2021/07/26 10:36:41;;;;;;;3.10;2.90;;;27.80;99.60;;;;;;4975981;28;20534;-62
2021/07/26 10:39:16;;;;;;;3.53;3.23;;;27.80;99.70;;;;;;4975982;28;20945;-62
2021/07/26 10:41:47;;;;;;;3.27;3.03;;;27.70;98.70;;;;;;4975793;28;20177;-62
2021/07/26 10:44:15;;;;;;;3.40;3.00;;;27.90;99.00;;;;;;4975037;28;20405;-62
2021/07/26 10:47:07;;;;;;;3.90;3.00;;;28.10;97.80;;;;;;4975804;28;20405;-62
2021/07/26 10:49:38;;;;;;;3.83;3.13;;;28.20;99.40;;;;;;4972656;28;20456;-62
2021/07/26 10:52:03;;;;;;;3.90;3.00;;;28.50;99.20;;;;;;4975932;28;20897;-63
2021/07/26 10:54:34;;;;;;;4.30;3.10;;;28.90;98.50;;;;;;4976069;28;20420;-62
2021/07/26 10:57:03;;;;;;;3.70;3.40;;;28.80;98.10;;;;;;4975540;28;20197;-62
2021/07/26 10:59:30;;;;;;;3.60;3.30;;;28.20;98.60;;;;;;4975198;28;20459;-62
2021/07/26 11:01:57;;;;;;;3.67;3.37;;;28.00;99.90;;;;;;4975744;28;20428;-62
2021/07/26 11:04:34;;;;;;;3.53;3.30;;;28.10;99.50;;;;;;4975817;28;20401;-62
2021/07/26 11:07:24;;;;;;;2.90;2.70;;;27.80;99.30;;;;;;4962699;28;20896;-62
2021/07/26 11:09:51;;;;;;;3.70;3.40;;;28.10;99.90;;;;;;4948300;28;20465;-62
2021/07/26 11:12:54;;;;;;;3.30;3.00;;;28.40;99.40;;;;;;4955987;28;20418;-62
2021/07/26 11:15:20;;;;;;;3.40;3.10;;;29.10;97.20;;;;;;4955996;28;20401;-62
2021/07/26 11:18:18;;;;;;;4.00;3.60;;;29.20;96.90;;;;;;4956202;28;20588;-62
2021/07/26 11:20:57;;;;;;;4.17;3.77;;;29.00;98.30;;;;;;4955903;28;20429;-61
2021/07/26 11:23:44;;;;;;;3.47;3.13;;;29.10;98.50;;;;;;4956303;28;20520;-59
2021/07/26 11:26:25;;;;;;;3.20;2.93;;;29.30;97.70;;;;;;4955709;29;20481;-62
2021/07/26 11:28:53;;;;;;;3.57;2.80;;;29.10;96.40;;;;;;4956409;29;20436;-62
2021/07/26 11:31:21;;;;;;;3.30;3.00;;;30.20;95.40;;;;;;4955534;28;20401;-62
2021/07/26 11:33:46;;;;;;;3.00;2.80;;;32.00;94.70;;;;;;4956137;28;20464;-62
2021/07/26 11:36:12;;;;;;;3.30;2.70;;;32.80;92.20;;;;;;4962440;28;20456;-62
2021/07/26 11:39:05;;;;;;;4.13;3.73;;;32.00;91.50;;;;;;4975710;28;20193;-61
2021/07/26 11:41:32;;;;;;;3.47;3.00;;;31.10;93.30;;;;;;4975233;28;20157;-62
2021/07/26 11:43:57;;;;;;;7.53;2.83;;;30.60;95.40;;;;;;4976140;28;20447;-62
2021/07/26 11:46:24;;;;;;;3.43;3.13;;;31.30;94.10;;;;;;4976491;28;20409;-61
2021/07/26 11:48:55;;;;;;;3.73;3.43;;;31.10;92.60;;;;;;4976081;28;20209;-62
2021/07/26 11:51:34;;;;;;;3.73;3.43;;;30.20;94.30;;;;;;4974797;28;20917;-62
2021/07/26 11:54:05;;;;;;;3.77;3.47;;;29.70;96.00;;;;;;4975246;28;20456;-62
2021/07/26 11:56:31;;;;;;;3.80;3.50;;;29.00;95.70;;;;;;4974826;28;20528;-62
2021/07/26 11:59:15;;;;;;;3.30;3.00;;;28.60;96.70;;;;;;4974901;28;20424;-62
2021/07/26 12:01:56;;;;;;;4.00;2.93;;;28.40;97.20;;;;;;4974591;28;20772;-62
2021/07/26 12:04:25;;;;;;;3.73;3.43;;;28.20;98.00;;;;;;4974619;28;20393;-62
2021/07/26 12:06:55;;;;;;;4.33;3.93;;;28.00;97.90;;;;;;4974770;28;20412;-61
2021/07/26 12:09:22;;;;;;;5.03;4.13;;;27.30;99.10;;;;;;4974916;28;20425;-62
2021/07/26 12:11:48;;;;;;;5.03;4.10;;;27.00;99.90;;;;;;4974234;28;20413;-61
2021/07/26 12:14:23;;;;;;;5.50;3.80;;;26.70;99.90;;;;;;4974878;28;20463;-60
2021/07/26 12:17:09;;;;;;;3.50;3.20;;;26.30;99.90;;;;;;4974366;28;20203;-62
2021/07/26 12:19:37;;;;;;;4.23;3.83;;;26.10;99.90;;;;;;4975063;28;20416;-61
2021/07/26 12:22:22;;;;;;;5.90;3.50;;;26.10;99.90;;;;;;4975074;28;20400;-62
2021/07/26 12:25:01;;;;;;;4.10;3.70;;;25.90;99.90;;;;;;4974791;28;20807;-62
2021/07/26 12:27:34;;;;;;;4.20;3.80;;;26.10;99.90;;;;;;4973881;28;20442;-62
2021/07/26 12:30:01;;;;;;;3.73;3.10;;;26.20;99.90;;;;;;4973995;28;20515;-62
2021/07/26 12:32:27;;;;;;;5.00;4.27;;;26.20;99.90;;;;;;4974527;28;20813;-62
2021/07/26 12:35:12;;;;;;;4.33;3.90;;;26.20;99.90;;;;;;4974356;28;20832;-62
2021/07/26 12:37:39;;;;;;;4.30;3.90;;;26.00;99.90;;;;;;4974251;28;20463;-62
2021/07/26 12:40:15;;;;;;;5.17;3.73;;;26.00;99.90;;;;;;4974107;28;20432;-62
2021/07/26 12:42:41;;;;;;;3.90;3.50;;;26.00;99.90;;;;;;4972618;28;20432;-61
2021/07/26 12:45:22;;;;;;;5.00;4.40;;;25.90;99.90;;;;;;4970958;28;20491;-61
2021/07/26 12:47:48;;;;;;;6.00;4.03;;;26.10;99.90;;;;;;4963352;28;20420;-62
2021/07/26 12:50:14;;;;;;;4.83;3.90;;;26.10;99.90;;;;;;4954601;29;20434;-61
2021/07/26 12:52:39;;;;;;;6.13;3.93;;;26.20;99.90;;;;;;4954937;29;20174;-62
2021/07/26 12:55:05;;;;;;;4.40;3.53;;;26.20;99.90;;;;;;4954880;29;20181;-62